Rio Blanco — D5BO9 — position and weather

sailwx.info

Track history (hours):
 
Tides and Currents Weather Stations Pressure Air Temp Water Temp Dewpoint Dewpoint Depression Visibility Wind Speed Wind Dir Waves Ship Positions

Rio Blanco

Last reported at 2017-Feb-26 06:34 UTC. Time now 2017-Feb-26 07:39 UTC.
Position N 31°13' E 029°48'.

Length 286 m; draft 9.8 m.

Type: Ship (hazmat cat A). MMSI: 636092395.

Date/timePositionNaut miles runAvg speedWind from/ knotsBaromVisibWave heightAir tempDewpointWater temp
2017-Feb-26 06:34N 31°13' E 029°48'4 1.9
2017-Feb-26 04:31N 31°09' E 029°48'18 0.7
2017-Feb-25 03:29N 31°20' E 029°31'1415.4
2017-Feb-25 02:34N 31°25' E 029°15'67916.3
2017-Feb-23 09:00N 35°12' E 016°30'4615.2 230 / 131022.810.8 15.4 9.316.0
2017-Feb-23 06:00N 35°24' E 015°36'3916.0 280 / 101021.110.8 15.710.016.0
2017-Feb-23 03:32N 35°42' E 014°53'1616.3
2017-Feb-23 02:33N 35°48' E 014°35'2 1.9
2017-Feb-23 01:33N 35°49' E 014°33'0 0.0
2017-Feb-22 22:30N 35°49' E 014°33'0 0.0
2017-Feb-22 19:16N 35°49' E 014°33'0 0.0
2017-Feb-22 18:30N 35°49' E 014°33'3 3.3
2017-Feb-22 17:33N 35°47' E 014°35'2 2.3
2017-Feb-22 16:33N 35°45' E 014°33'1010.1
2017-Feb-22 15:33N 35°46' E 014°21'1312.6
2017-Feb-22 14:33N 35°53' E 014°08'1212.0
2017-Feb-22 13:33N 36°00' E 013°55'1211.8
2017-Feb-22 12:33N 36°06' E 013°43'1212.2
2017-Feb-22 11:33N 36°13' E 013°31'3815.0
2017-Feb-22 09:00N 36°30' E 012°48'5317.6 230 / 81023.210.8 15.7 8.715.0
2017-Feb-22 06:00N 37°00' E 011°54'41219.6 200 / 101022.410.8 15.6-11.015.0
2017-Feb-21 09:00N 37°00' E 003°18'35714.9 070 / 221022.710.8 15.7 8.015.0
2017-Feb-20 09:00N 36°00' W 004°00'4512.5 070 / 471016.1 2.2 15.9 15.0
2017-Feb-20 05:25N 36°02' W 004°55'1214.3
2017-Feb-20 04:33N 36°00' W 005°10'1514.9
2017-Feb-20 03:33N 35°57' W 005°28'1515.2
2017-Feb-20 02:33N 35°54' W 005°47'22914.3
2017-Feb-19 10:33N 37°52' W 009°53'1717.4
2017-Feb-19 09:33N 38°09' W 009°57'1527.7
2017-Feb-19 09:00N 38°24' W 010°00'2 3.9 050 / 261020.610.8 13.2 7.215.0
2017-Feb-19 08:33N 38°25' W 010°01'1717.5
2017-Feb-19 07:33N 38°43' W 010°06'1817.6
2017-Feb-19 06:34N 39°00' W 010°06'713.2
2017-Feb-19 06:00N 39°06' W 010°00'1329.3 020 / 201020.210.8 13.3 7.714.0
2017-Feb-19 05:33N 39°18' W 010°06'55217.0
2017-Feb-17 21:00N 48°06' W 006°24'2213.0 160 / 251021.810.8 13.5 7.711.0
2017-Feb-17 19:17N 48°26' W 006°10'1115.4
2017-Feb-17 18:33N 48°37' W 006°03'1615.3
2017-Feb-17 17:29N 48°50' W 005°51'1515.8
2017-Feb-17 16:33N 48°59' W 005°33'1716.9
2017-Feb-17 15:33N 49°08' W 005°11'1616.5
2017-Feb-17 14:33N 49°16' W 004°49'5713.9
2017-Feb-17 10:25N 49°44' W 003°31'1112.5
2017-Feb-17 09:33N 49°49' W 003°17'1312.7
2017-Feb-17 08:33N 49°56' W 003°00'1313.4
2017-Feb-17 07:34N 50°01' W 002°41'1514.9
2017-Feb-17 06:33N 50°05' W 002°18'1616.1
2017-Feb-17 05:34N 50°10' W 001°54'1616.2
2017-Feb-17 04:33N 50°14' W 001°30'1515.1
2017-Feb-17 03:33N 50°19' W 001°07'1313.3
2017-Feb-17 02:33N 50°22' W 000°47'1212.0
2017-Feb-17 01:34N 50°25' W 000°29'1111.5
2017-Feb-17 00:33N 50°28' W 000°12'1111.4
2017-Feb-16 23:33N 50°30' E 000°06'1212.1
2017-Feb-16 22:33N 50°34' E 000°24'1813.4
2017-Feb-16 21:13N 50°42' E 000°49'914.4
2017-Feb-16 20:33N 50°47' E 001°01'1414.1
2017-Feb-16 19:33N 50°56' E 001°20'1313.1
2017-Feb-16 18:34N 51°06' E 001°33'1111.5
2017-Feb-16 17:34N 51°14' E 001°45'1111.2
2017-Feb-16 16:33N 51°24' E 001°54'1211.5
2017-Feb-16 15:33N 51°32' E 002°06'1312.5
2017-Feb-16 14:34N 51°41' E 002°20'1413.9
2017-Feb-16 13:33N 51°52' E 002°35'1614.5
2017-Feb-16 12:26N 52°05' E 002°52'1314.7
2017-Feb-16 11:34N 52°15' E 003°04'1514.3
2017-Feb-16 10:32N 52°27' E 003°18'1513.3
2017-Feb-16 09:24N 52°39' E 003°34'1112.6
2017-Feb-16 08:31N 52°47' E 003°45'1212.1
2017-Feb-16 07:34N 52°56' E 003°57'  
Track history (hours):
 
Tides and Currents Weather Stations Pressure Air Temp Water Temp Dewpoint Dewpoint Depression Visibility Wind Speed Wind Dir Waves Ship Positions

Rio Blanco

Last reported at 2017-Feb-26 06:34 UTC. Time now 2017-Feb-26 07:39 UTC.
Position N 31°13' E 029°48'.

Length 286 m; draft 9.8 m.

Type: Ship (hazmat cat A). MMSI: 636092395.

Date/timePositionNaut miles runAvg speedWind from/ knotsBaromVisibWave heightAir tempDewpointWater temp
2017-Feb-26 06:34N 31°13' E 029°48'4 1.9
2017-Feb-26 04:31N 31°09' E 029°48'18 0.7
2017-Feb-25 03:29N 31°20' E 029°31'1415.4
2017-Feb-25 02:34N 31°25' E 029°15'67916.3
2017-Feb-23 09:00N 35°12' E 016°30'4615.2 230 / 131022.810.8 15.4 9.316.0
2017-Feb-23 06:00N 35°24' E 015°36'3916.0 280 / 101021.110.8 15.710.016.0
2017-Feb-23 03:32N 35°42' E 014°53'1616.3
2017-Feb-23 02:33N 35°48' E 014°35'2 1.9
2017-Feb-23 01:33N 35°49' E 014°33'0 0.0
2017-Feb-22 22:30N 35°49' E 014°33'0 0.0
2017-Feb-22 19:16N 35°49' E 014°33'0 0.0
2017-Feb-22 18:30N 35°49' E 014°33'3 3.3
2017-Feb-22 17:33N 35°47' E 014°35'2 2.3
2017-Feb-22 16:33N 35°45' E 014°33'1010.1
2017-Feb-22 15:33N 35°46' E 014°21'1312.6
2017-Feb-22 14:33N 35°53' E 014°08'1212.0
2017-Feb-22 13:33N 36°00' E 013°55'1211.8
2017-Feb-22 12:33N 36°06' E 013°43'1212.2
2017-Feb-22 11:33N 36°13' E 013°31'3815.0
2017-Feb-22 09:00N 36°30' E 012°48'5317.6 230 / 81023.210.8 15.7 8.715.0
2017-Feb-22 06:00N 37°00' E 011°54'41219.6 200 / 101022.410.8 15.6-11.015.0
2017-Feb-21 09:00N 37°00' E 003°18'35714.9 070 / 221022.710.8 15.7 8.015.0
2017-Feb-20 09:00N 36°00' W 004°00'4512.5 070 / 471016.1 2.2 15.9 15.0
2017-Feb-20 05:25N 36°02' W 004°55'1214.3
2017-Feb-20 04:33N 36°00' W 005°10'1514.9
2017-Feb-20 03:33N 35°57' W 005°28'1515.2
2017-Feb-20 02:33N 35°54' W 005°47'22914.3
2017-Feb-19 10:33N 37°52' W 009°53'1717.4
2017-Feb-19 09:33N 38°09' W 009°57'1527.7
2017-Feb-19 09:00N 38°24' W 010°00'2 3.9 050 / 261020.610.8 13.2 7.215.0
2017-Feb-19 08:33N 38°25' W 010°01'1717.5
2017-Feb-19 07:33N 38°43' W 010°06'1817.6
2017-Feb-19 06:34N 39°00' W 010°06'713.2
2017-Feb-19 06:00N 39°06' W 010°00'1329.3 020 / 201020.210.8 13.3 7.714.0
2017-Feb-19 05:33N 39°18' W 010°06'55217.0
2017-Feb-17 21:00N 48°06' W 006°24'2213.0 160 / 251021.810.8 13.5 7.711.0
2017-Feb-17 19:17N 48°26' W 006°10'1115.4
2017-Feb-17 18:33N 48°37' W 006°03'1615.3
2017-Feb-17 17:29N 48°50' W 005°51'1515.8
2017-Feb-17 16:33N 48°59' W 005°33'1716.9
2017-Feb-17 15:33N 49°08' W 005°11'1616.5
2017-Feb-17 14:33N 49°16' W 004°49'5713.9
2017-Feb-17 10:25N 49°44' W 003°31'1112.5
2017-Feb-17 09:33N 49°49' W 003°17'1312.7
2017-Feb-17 08:33N 49°56' W 003°00'1313.4
2017-Feb-17 07:34N 50°01' W 002°41'1514.9
2017-Feb-17 06:33N 50°05' W 002°18'1616.1
2017-Feb-17 05:34N 50°10' W 001°54'1616.2
2017-Feb-17 04:33N 50°14' W 001°30'1515.1
2017-Feb-17 03:33N 50°19' W 001°07'1313.3
2017-Feb-17 02:33N 50°22' W 000°47'1212.0
2017-Feb-17 01:34N 50°25' W 000°29'1111.5
2017-Feb-17 00:33N 50°28' W 000°12'1111.4
2017-Feb-16 23:33N 50°30' E 000°06'1212.1
2017-Feb-16 22:33N 50°34' E 000°24'1813.4
2017-Feb-16 21:13N 50°42' E 000°49'914.4
2017-Feb-16 20:33N 50°47' E 001°01'1414.1
2017-Feb-16 19:33N 50°56' E 001°20'1313.1
2017-Feb-16 18:34N 51°06' E 001°33'1111.5
2017-Feb-16 17:34N 51°14' E 001°45'1111.2
2017-Feb-16 16:33N 51°24' E 001°54'1211.5
2017-Feb-16 15:33N 51°32' E 002°06'1312.5
2017-Feb-16 14:34N 51°41' E 002°20'1413.9
2017-Feb-16 13:33N 51°52' E 002°35'1614.5
2017-Feb-16 12:26N 52°05' E 002°52'1314.7
2017-Feb-16 11:34N 52°15' E 003°04'1514.3
2017-Feb-16 10:32N 52°27' E 003°18'1513.3
2017-Feb-16 09:24N 52°39' E 003°34'1112.6
2017-Feb-16 08:31N 52°47' E 003°45'1212.1
2017-Feb-16 07:34N 52°56' E 003°57'  

Dump ship's entire track history